»·PEaware :: N822JH L52-L88

N822JH :: L52-L88

FLIGHT INFORMATION

Flight Status: Arrived
Operator: Privately registered:
United States
More flights under this callsign
Pilot: Chris C. (17882)
Aircraft: PIPER PA-28 CHEROKEE ARCHER
(P28A)
More flights by this aircraft type
Origin: L52 Oceano Co
United States
Destination: L88 New Cuyama
United States
More flights between these airports :: More routes between these airports
Route: DIRECT
File this flight plan on PilotEdge
Remarks:
Altitude:
(Current/Filed)
4,500ft
Speed:
(Current/Filed)
120kts
Departed: 13-Jan-18 05:40 PM
Arrived: 13-Jan-18 06:10 PM
Distance/Time
Traveled:
47nm/0:30
Distance/Time
To Go:
Arrived

Flight Plot

Page will automatically refresh every two minutes.


Map Options




Map Legend


Flown Route
Filed Route
Departure Airport
Arrival Airport
Navaid (VOR, NDB)
Fix

Horizontal Profiles

Position Reports

Time Latitude Longitude Heading Altitude Ground
Speed
13-Jan-18 17:12 35.102573 -120.622694 34 17ft 0kts
13-Jan-18 17:13 35.102573 -120.622694 34 17ft 0kts
13-Jan-18 17:14 35.102573 -120.622694 34 17ft 0kts
13-Jan-18 17:15 35.102573 -120.622694 34 17ft 0kts
13-Jan-18 17:16 35.102573 -120.622694 34 17ft 0kts
13-Jan-18 17:17 35.102573 -120.622694 34 17ft 0kts
13-Jan-18 17:18 35.102573 -120.622694 34 17ft 0kts
13-Jan-18 17:19 35.102573 -120.622694 34 17ft 0kts
13-Jan-18 17:20 35.102573 -120.622694 34 17ft 0kts
13-Jan-18 17:21 35.102576 -120.622691 34 17ft 0kts
13-Jan-18 17:22 35.102580 -120.622688 34 17ft 0kts
13-Jan-18 17:23 35.102638 -120.622775 273 17ft 0kts
13-Jan-18 17:24 35.102638 -120.622778 273 17ft 0kts
13-Jan-18 17:25 35.102638 -120.622781 273 17ft 0kts
13-Jan-18 17:26 35.102638 -120.622784 273 17ft 0kts
13-Jan-18 17:27 35.102639 -120.622787 273 17ft 0kts
13-Jan-18 17:28 35.102639 -120.622789 273 17ft 0kts
13-Jan-18 17:29 35.102639 -120.622791 273 17ft 0kts
13-Jan-18 17:30 35.102639 -120.622793 273 17ft 0kts
13-Jan-18 17:31 35.102639 -120.622799 273 17ft 0kts
13-Jan-18 17:32 35.102639 -120.622805 273 17ft 0kts
13-Jan-18 17:33 35.102640 -120.622808 273 17ft 0kts
13-Jan-18 17:34 35.102640 -120.622811 273 17ft 0kts
13-Jan-18 17:35 35.102640 -120.622814 273 17ft 0kts
13-Jan-18 17:37 35.102640 -120.622819 273 17ft 0kts
13-Jan-18 17:38 35.102640 -120.622822 273 17ft 0kts
13-Jan-18 17:39 35.102640 -120.622825 273 17ft 0kts
13-Jan-18 17:40 35.102640 -120.622828 273 17ft 0kts
13-Jan-18 17:41 35.102636 -120.623091 239 17ft 0kts
13-Jan-18 17:42 35.103392 -120.625048 213 17ft 6kts
13-Jan-18 17:43 35.100928 -120.622254 125 17ft 19kts
13-Jan-18 17:44 35.099368 -120.619183 26 17ft 5kts
13-Jan-18 17:45 35.099387 -120.619170 29 17ft 0kts
13-Jan-18 17:46 35.102614 -120.624151 303 154ft 71kts
13-Jan-18 17:47 35.104388 -120.646327 187 1319ft 95kts
13-Jan-18 17:48 35.090801 -120.619887 108 2594ft 86kts
13-Jan-18 17:49 35.086489 -120.592015 100 3767ft 85kts
13-Jan-18 17:50 35.083510 -120.561459 99 4502ft 108kts
13-Jan-18 17:51 35.077996 -120.523353 104 4562ft 116kts
13-Jan-18 17:52 35.070735 -120.484830 104 4498ft 116kts
13-Jan-18 17:53 35.063877 -120.446152 103 4489ft 115kts
13-Jan-18 17:54 35.056631 -120.407356 105 4486ft 116kts
13-Jan-18 17:55 35.049763 -120.368887 109 4497ft 116kts
13-Jan-18 17:56 35.039975 -120.331248 104 4495ft 117kts
13-Jan-18 17:57 35.032272 -120.293049 99 4524ft 117kts
13-Jan-18 17:58 35.042679 -120.254692 73 4547ft 119kts
13-Jan-18 17:59 35.057162 -120.217703 55 4542ft 123kts
13-Jan-18 18:00 35.076124 -120.183676 58 4541ft 122kts
13-Jan-18 18:01 35.090503 -120.147221 90 4531ft 118kts
13-Jan-18 18:02 35.086520 -120.107508 105 4539ft 118kts
13-Jan-18 18:03 35.072978 -120.071545 120 4541ft 117kts
13-Jan-18 18:04 35.057049 -120.037064 118 4532ft 118kts
13-Jan-18 18:05 35.043276 -120.000956 114 4605ft 110kts
13-Jan-18 18:06 35.027867 -119.964576 119 4500ft 126kts
13-Jan-18 18:07 35.012791 -119.925502 121 4465ft 130kts
13-Jan-18 18:08 34.997035 -119.887540 117 4502ft 126kts
13-Jan-18 18:09 34.985871 -119.847278 111 4433ft 129kts
13-Jan-18 18:10 34.971872 -119.808491 112 4416ft 125kts
13-Jan-18 18:11 34.964687 -119.765771 103 3843ft 128kts
13-Jan-18 18:12 34.950201 -119.726786 116 3124ft 125kts
13-Jan-18 18:13 34.934024 -119.692484 114 2711ft 111kts
13-Jan-18 18:14 34.927774 -119.665014 26 2532ft 67kts
13-Jan-18 18:15 34.936207 -119.685112 295 2206ft 48kts
13-Jan-18 18:16 34.940019 -119.694087 30 2206ft 4kts
13-Jan-18 18:17 34.940688 -119.693842 113 2206ft 0kts
13-Jan-18 18:18 34.940688 -119.693842 113 2206ft 0kts
13-Jan-18 18:19 34.940688 -119.693842 113 2206ft 0kts
13-Jan-18 18:20 34.940688 -119.693842 113 2206ft 0kts
13-Jan-18 18:21 34.940688 -119.693842 113 2206ft 0kts
13-Jan-18 18:22 34.940688 -119.693842 113 2206ft 0kts
13-Jan-18 18:23 34.940688 -119.693842 113 2206ft 0kts
13-Jan-18 18:24 34.940688 -119.693842 113 2206ft 0kts
13-Jan-18 18:25 34.940688 -119.693842 113 2206ft 0kts
13-Jan-18 18:26 34.940688 -119.693842 113 2206ft 0kts
13-Jan-18 18:27 34.940688 -119.693842 113 2206ft 0kts
13-Jan-18 18:28 34.940688 -119.693842 113 2206ft 0kts
13-Jan-18 18:29 34.940688 -119.693842 113 2206ft 0kts
13-Jan-18 18:30 34.940688 -119.693842 113 2206ft 0kts

Navigation Log

Ident Type
Flight plan parsing failed, navigation log unavailable